Terminal Aerodrome Forecast
Issued by NWS

Home | Current Version | Previous Version | Text Only | Print | Product List | Glossary On
Versions: 1 2 3 4 5 6 7 8 9 10 11 12 13 14
000
FTUS43 KPAH 291124
TAFCGI
TAF
KCGI 291124Z 2912/3012 00000KT P6SM SCT100 SCT250
     FM291500 30006KT P6SM SCT035
     FM300000 36006KT P6SM SCT050=

USA.gov is the U.S. government's official web portal to all federal, state and local government web resources and services.